Terminal Aerodrome Forecast
Issued by NWS Buffalo, NY

Home | Current Version | Previous Version | Text Only | Print | Product List | Glossary On
Versions: 1 2 3 4 5 6 7 8 9 10 11 12 13 14 15 16 17 18 19 20 21 22 23 24 25 26 27 28
637
FTUS41 KBUF 260539
TAFART
TAF
KART 260539Z 2606/2706 26007KT P6SM SCT080
     FM260800 VRB03KT P6SM BKN200
     FM261600 22004KT P6SM VCSH BKN050
     FM261900 24008KT P6SM VCSH BKN060
     FM270000 21006KT 6SM -SHRA BKN035
     FM270200 20006KT P6SM VCSH BKN080=

USA.gov is the U.S. government's official web portal to all federal, state and local government web resources and services.